Oshtemo, Michigan
Current Conditions -  °F | °C
As of 1:53 PM on Tuesday 27 Jan 2015 (Local Time) from KAZO Reporting Station
Clear Clear  
Wind Chill: 19°   Ceiling: Unl
Heat Index: 27°   Visibility: 10mi
Dew Point:   Wind: 7mph
Humidity: 47%   Direction: 350°N
Pressure: 30.14"   Gusts: NA
Location:  42.26°N, 85.68°W
Report Text: KAZO 271853Z 35006KT 10SM CLR M03/M13 A3014 RMK AO2 SLP221 T10281128
Loading
Personal Weather Stations






























Interactive Weather Map New forecast layout! Learn more

10-Day Weather Forecast

Advertisements
Track Severe Weather on mobile